createdAt,value
2023-04-06T00:01:21.771Z,1.70
2023-04-06T00:03:48.822Z,1.70
2023-04-06T00:06:17.208Z,1.70
2023-04-06T00:08:45.689Z,1.70
2023-04-06T00:11:12.711Z,1.70
2023-04-06T00:13:39.707Z,1.70
2023-04-06T00:16:07.331Z,1.70
2023-04-06T00:18:34.376Z,1.70
2023-04-06T00:21:01.405Z,1.80
2023-04-06T00:23:40.359Z,1.80
2023-04-06T00:26:07.378Z,1.80
2023-04-06T00:28:34.380Z,1.90
2023-04-06T00:31:01.534Z,1.90
2023-04-06T00:33:28.545Z,1.90
2023-04-06T00:35:55.643Z,1.90
2023-04-06T00:38:23.348Z,1.90
2023-04-06T00:40:50.978Z,1.90
2023-04-06T00:43:17.967Z,1.90
2023-04-06T00:45:45.056Z,1.90
2023-04-06T00:48:12.375Z,1.90
2023-04-06T00:50:39.466Z,2.00
2023-04-06T00:53:06.513Z,1.90
2023-04-06T00:55:33.567Z,2.00
2023-04-06T00:58:02.249Z,2.00
2023-04-06T01:00:29.467Z,2.00
2023-04-06T01:02:56.592Z,2.00
2023-04-06T01:05:23.885Z,2.00
2023-04-06T01:07:51.094Z,2.10
2023-04-06T01:10:28.950Z,2.10
2023-04-06T01:12:55.921Z,2.10
2023-04-06T01:15:23.533Z,2.10
2023-04-06T01:17:50.625Z,2.10
2023-04-06T01:20:17.693Z,2.20
2023-04-06T01:22:44.739Z,2.20
2023-04-06T01:25:12.049Z,2.20
2023-04-06T01:27:39.053Z,2.20
2023-04-06T01:30:07.169Z,2.20
2023-04-06T01:32:34.426Z,2.20
2023-04-06T01:35:01.591Z,2.20
2023-04-06T01:37:28.811Z,2.20
2023-04-06T01:39:55.772Z,2.30
2023-04-06T01:42:22.753Z,2.30
2023-04-06T01:44:49.738Z,2.30
2023-04-06T01:47:16.752Z,2.30
2023-04-06T01:49:43.717Z,2.30
2023-04-06T01:52:10.948Z,2.40
2023-04-06T01:54:37.980Z,2.40
2023-04-06T01:57:04.981Z,2.40
2023-04-06T01:59:32.039Z,2.40
2023-04-06T02:01:59.111Z,2.40
2023-04-06T02:04:26.111Z,2.40
2023-04-06T02:06:53.061Z,2.40
2023-04-06T02:09:20.046Z,2.40
2023-04-06T02:11:47.033Z,2.40
2023-04-06T02:14:14.092Z,2.40
2023-04-06T02:16:41.124Z,2.40
2023-04-06T02:19:08.415Z,2.40
2023-04-06T02:21:35.635Z,2.40
2023-04-06T02:24:02.702Z,2.40
2023-04-06T02:26:29.761Z,2.40
2023-04-06T02:28:56.776Z,2.40
2023-04-06T02:31:23.814Z,2.40
2023-04-06T02:33:50.897Z,2.40
2023-04-06T02:36:17.918Z,2.40
2023-04-06T02:38:44.907Z,2.40
2023-04-06T02:41:11.886Z,2.40
2023-04-06T02:43:38.859Z,2.40
2023-04-06T02:46:05.887Z,2.40
2023-04-06T02:48:32.881Z,2.40
2023-04-06T02:50:59.876Z,2.40
2023-04-06T02:53:27.213Z,2.40
2023-04-06T02:55:54.247Z,2.40
2023-04-06T02:58:21.338Z,2.40
2023-04-06T03:00:48.381Z,2.40
2023-04-06T03:03:15.761Z,2.40
2023-04-06T03:05:42.814Z,2.40
2023-04-06T03:08:09.770Z,2.40
2023-04-06T03:10:36.879Z,2.50
2023-04-06T03:13:03.902Z,2.40
2023-04-06T03:15:30.969Z,2.50
2023-04-06T03:18:00.423Z,2.50
2023-04-06T03:20:27.767Z,2.50
2023-04-06T03:22:54.997Z,2.50
2023-04-06T03:25:22.012Z,2.50
2023-04-06T03:27:48.993Z,2.60
2023-04-06T03:30:18.109Z,2.50
2023-04-06T03:32:46.256Z,2.50
2023-04-06T03:35:13.571Z,2.60
2023-04-06T03:37:40.698Z,2.50
2023-04-06T03:40:08.204Z,2.50
2023-04-06T03:42:35.446Z,2.60
2023-04-06T03:45:02.577Z,2.50
2023-04-06T03:47:29.596Z,2.50
2023-04-06T03:49:57.010Z,2.50
2023-04-06T03:52:24.292Z,2.60
2023-04-06T03:54:51.386Z,2.50
2023-04-06T03:57:18.450Z,2.50
2023-04-06T03:59:45.496Z,2.50
2023-04-06T04:02:12.510Z,2.60
2023-04-06T04:04:39.681Z,2.50
2023-04-06T04:07:06.662Z,2.60
2023-04-06T04:09:33.727Z,2.60
2023-04-06T04:12:00.989Z,2.60
2023-04-06T04:14:28.027Z,2.60
2023-04-06T04:16:55.196Z,2.60
2023-04-06T04:19:22.358Z,2.60
2023-04-06T04:21:49.384Z,2.60
2023-04-06T04:24:16.588Z,2.60
2023-04-06T04:26:43.619Z,2.60
2023-04-06T04:29:11.278Z,2.60
2023-04-06T04:31:38.330Z,2.60
2023-04-06T04:34:05.489Z,2.60
2023-04-06T04:36:32.701Z,2.60
2023-04-06T04:39:02.289Z,2.60
2023-04-06T04:41:29.325Z,2.60
2023-04-06T04:43:56.385Z,2.60
2023-04-06T04:46:23.559Z,2.60
2023-04-06T04:48:50.818Z,2.60
2023-04-06T04:51:17.856Z,2.60
2023-04-06T04:53:44.983Z,2.60
2023-04-06T04:56:12.053Z,2.60
2023-04-06T04:58:39.059Z,2.70
2023-04-06T05:01:06.276Z,2.70
2023-04-06T05:03:34.366Z,2.70
2023-04-06T05:06:01.527Z,2.70
2023-04-06T05:08:28.552Z,2.70
2023-04-06T05:10:55.908Z,2.70
2023-04-06T05:13:23.081Z,2.70
2023-04-06T05:15:50.189Z,2.70
2023-04-06T05:18:17.323Z,2.70
2023-04-06T05:20:44.763Z,2.80
2023-04-06T05:23:11.747Z,2.80
2023-04-06T05:25:38.770Z,2.80
2023-04-06T05:28:05.823Z,2.80
2023-04-06T05:30:32.906Z,2.90
2023-04-06T05:33:00.568Z,2.90
2023-04-06T05:35:27.674Z,3.00
2023-04-06T05:37:54.760Z,3.00
2023-04-06T05:40:21.917Z,3.00
2023-04-06T05:42:50.566Z,3.00
2023-04-06T05:45:19.529Z,3.00
2023-04-06T05:47:47.016Z,3.10
2023-04-06T05:50:16.077Z,3.10
2023-04-06T05:52:44.333Z,3.10
2023-04-06T05:55:12.209Z,3.20
2023-04-06T05:57:39.358Z,3.30
2023-04-06T06:00:09.943Z,3.30
2023-04-06T06:02:37.248Z,3.30
2023-04-06T06:05:04.475Z,3.30
2023-04-06T06:07:31.674Z,3.30
2023-04-06T06:09:59.340Z,3.40
2023-04-06T06:12:26.385Z,3.40
2023-04-06T06:14:53.450Z,3.40
2023-04-06T06:17:20.506Z,3.40
2023-04-06T06:19:47.546Z,3.50
2023-04-06T06:22:14.814Z,3.60
2023-04-06T06:24:41.794Z,3.70
2023-04-06T06:27:08.939Z,3.70
2023-04-06T06:29:35.975Z,3.80
2023-04-06T06:32:02.997Z,3.90
2023-04-06T06:34:30.204Z,4.00
2023-04-06T06:36:57.725Z,4.00
2023-04-06T06:39:24.783Z,4.00
2023-04-06T06:41:51.760Z,4.00
2023-04-06T06:44:18.872Z,4.10
2023-04-06T06:46:45.882Z,4.20
2023-04-06T06:49:13.521Z,4.30
2023-04-06T06:51:40.686Z,4.30
2023-04-06T06:54:09.509Z,4.30
2023-04-06T06:56:39.028Z,4.40
2023-04-06T06:59:09.538Z,4.40
2023-04-06T07:01:37.848Z,4.50
2023-04-06T07:04:05.076Z,4.60
2023-04-06T07:06:32.124Z,4.70
2023-04-06T07:09:02.066Z,4.70
2023-04-06T07:11:29.369Z,4.80
2023-04-06T07:13:56.414Z,4.90
2023-04-06T07:16:23.648Z,4.90
2023-04-06T07:18:50.769Z,4.90
2023-04-06T07:21:17.801Z,5.00
2023-04-06T07:23:44.839Z,5.10
2023-04-06T07:26:11.926Z,5.10
2023-04-06T07:28:38.890Z,5.20
2023-04-06T07:31:05.941Z,5.30
2023-04-06T07:33:32.913Z,5.40
2023-04-06T07:36:00.310Z,5.40
2023-04-06T07:38:27.343Z,5.50
2023-04-06T07:40:54.612Z,5.60
2023-04-06T07:43:21.629Z,5.70
2023-04-06T07:45:48.808Z,5.70
2023-04-06T07:48:16.049Z,5.70
2023-04-06T07:50:43.082Z,5.90
2023-04-06T07:53:10.818Z,6.00
2023-04-06T07:55:37.879Z,6.00
2023-04-06T07:58:05.083Z,6.10
2023-04-06T08:00:32.309Z,6.10
2023-04-06T08:02:59.458Z,6.00
2023-04-06T08:05:26.575Z,6.00
2023-04-06T08:07:53.615Z,5.90
2023-04-06T08:10:20.804Z,5.80
2023-04-06T08:12:47.792Z,5.80
2023-04-06T08:15:14.955Z,5.70
2023-04-06T08:17:42.114Z,5.80
2023-04-06T08:20:09.402Z,5.80
2023-04-06T08:22:36.549Z,5.80
2023-04-06T08:25:03.545Z,5.90
2023-04-06T08:27:30.577Z,5.90
2023-04-06T08:29:57.592Z,5.80
2023-04-06T08:32:24.625Z,5.80
2023-04-06T08:34:55.483Z,5.90
2023-04-06T08:37:23.284Z,6.00
2023-04-06T08:39:52.422Z,5.90
2023-04-06T08:42:26.383Z,5.90
2023-04-06T08:44:53.547Z,5.90
2023-04-06T08:47:23.969Z,5.90
2023-04-06T08:49:52.871Z,5.90
2023-04-06T08:52:20.893Z,5.90
2023-04-06T08:54:48.651Z,5.90
2023-04-06T08:57:16.540Z,5.90
2023-04-06T08:59:44.069Z,6.00
2023-04-06T09:02:18.285Z,6.00
2023-04-06T09:04:50.971Z,6.00
2023-04-06T09:07:18.192Z,6.10
2023-04-06T09:09:48.931Z,6.20
2023-04-06T09:12:26.661Z,6.30
2023-04-06T09:14:54.274Z,6.30
2023-04-06T09:17:40.385Z,6.20
2023-04-06T09:20:08.212Z,6.30
2023-04-06T09:22:39.746Z,6.30
2023-04-06T09:25:07.886Z,6.40
2023-04-06T09:27:36.874Z,6.50
2023-04-06T09:30:15.386Z,6.50
2023-04-06T09:32:58.853Z,6.60
2023-04-06T09:35:27.622Z,6.70
2023-04-06T09:37:55.446Z,6.80
2023-04-06T09:40:23.391Z,6.90
2023-04-06T09:42:53.754Z,6.90
2023-04-06T09:45:21.998Z,6.90
2023-04-06T09:47:52.523Z,6.90
2023-04-06T09:50:21.546Z,6.90
2023-04-06T09:52:51.582Z,6.90
2023-04-06T09:55:34.692Z,7.00
2023-04-06T09:58:04.422Z,7.00
2023-04-06T10:00:41.923Z,7.00
2023-04-06T10:03:27.723Z,7.10
2023-04-06T10:06:05.858Z,7.10
2023-04-06T10:08:36.719Z,7.10
2023-04-06T10:11:03.743Z,7.10
2023-04-06T10:13:30.810Z,7.10
2023-04-06T10:16:01.487Z,7.10
2023-04-06T10:18:29.130Z,7.20
2023-04-06T10:21:10.351Z,7.10
2023-04-06T10:23:39.266Z,7.10
2023-04-06T10:26:06.471Z,7.10
2023-04-06T10:28:36.940Z,7.10
2023-04-06T10:31:07.216Z,7.20
2023-04-06T10:33:34.675Z,7.30
2023-04-06T10:36:22.732Z,7.30
2023-04-06T10:38:59.783Z,7.40
2023-04-06T10:41:49.310Z,7.40
2023-04-06T10:44:22.873Z,7.40
2023-04-06T10:47:02.875Z,7.50
2023-04-06T10:49:29.837Z,7.50
2023-04-06T10:51:57.898Z,7.50
2023-04-06T10:54:27.039Z,7.70
2023-04-06T10:56:54.209Z,7.70
2023-04-06T10:59:23.090Z,7.70
2023-04-06T11:01:50.524Z,7.60
2023-04-06T11:04:19.448Z,7.60
2023-04-06T11:06:50.933Z,7.70
2023-04-06T11:09:28.529Z,7.70
2023-04-06T12:13:37.546Z,8.00
2023-04-06T12:16:04.675Z,7.90
2023-04-06T12:18:31.869Z,7.90
2023-04-06T12:20:58.820Z,7.80
2023-04-06T12:23:26.019Z,7.80
2023-04-06T12:25:53.010Z,7.80
2023-04-06T12:28:21.785Z,7.70
2023-04-06T12:30:48.712Z,7.70
2023-04-06T12:33:15.738Z,7.70
2023-04-06T12:35:42.726Z,7.70
2023-04-06T12:38:09.676Z,7.80
2023-04-06T12:40:40.977Z,7.80
2023-04-06T12:43:08.501Z,7.80
2023-04-06T12:45:35.707Z,7.90
2023-04-06T12:48:02.900Z,8.00
2023-04-06T12:50:29.919Z,8.00
2023-04-06T12:52:56.909Z,8.10
2023-04-06T12:55:23.874Z,8.00
2023-04-06T12:57:50.982Z,8.10
2023-04-06T13:00:18.578Z,8.10
2023-04-06T13:02:48.347Z,8.10
2023-04-06T13:05:20.081Z,8.10
2023-04-06T13:07:48.017Z,8.10
2023-04-06T13:10:15.120Z,8.00
2023-04-06T13:12:42.110Z,8.10
2023-04-06T13:15:09.577Z,8.10
2023-04-06T13:17:36.891Z,8.10
2023-04-06T13:20:04.676Z,8.10
2023-04-06T13:22:31.669Z,8.10
2023-04-06T13:24:58.634Z,8.10
2023-04-06T13:27:25.671Z,8.10
2023-04-06T13:29:52.654Z,8.20
2023-04-06T13:32:19.716Z,8.20
2023-04-06T13:34:46.745Z,8.20
2023-04-06T13:37:14.510Z,8.20
2023-04-06T13:39:41.565Z,8.20
2023-04-06T13:42:08.616Z,8.20
2023-04-06T13:44:35.594Z,8.10
2023-04-06T13:47:03.060Z,8.10
2023-04-06T13:49:30.052Z,8.10
2023-04-06T13:51:57.082Z,8.10
2023-04-06T13:54:24.070Z,8.00
2023-04-06T13:56:52.483Z,8.00
2023-04-06T13:59:20.828Z,8.00
2023-04-06T14:01:49.051Z,8.00
2023-04-06T14:04:16.172Z,8.00
2023-04-06T14:06:43.076Z,8.00
2023-04-06T14:09:10.084Z,8.00
2023-04-06T14:11:38.018Z,8.10
2023-04-06T14:14:04.953Z,8.10
2023-04-06T14:16:32.439Z,8.10
2023-04-06T14:18:59.979Z,8.20
2023-04-06T14:21:27.622Z,8.20
2023-04-06T14:23:55.789Z,8.20
2023-04-06T14:26:23.834Z,8.20
2023-04-06T14:28:51.048Z,8.20
2023-04-06T14:31:18.273Z,8.20
2023-04-06T14:33:46.278Z,8.20
2023-04-06T14:36:13.541Z,8.20
2023-04-06T14:38:41.593Z,8.20
2023-04-06T14:41:11.671Z,8.20
2023-04-06T14:43:38.685Z,8.20
2023-04-06T14:46:05.792Z,8.20
2023-04-06T14:48:32.810Z,8.30
2023-04-06T14:50:59.889Z,8.30
2023-04-06T14:53:27.360Z,8.20
2023-04-06T14:55:54.458Z,8.20
2023-04-06T14:58:21.958Z,8.10
2023-04-06T15:00:49.703Z,8.10
2023-04-06T15:03:17.224Z,8.10
2023-04-06T15:05:44.367Z,8.10
2023-04-06T15:08:12.624Z,8.00
2023-04-06T15:10:39.612Z,8.00
2023-04-06T15:13:06.692Z,8.00
2023-04-06T15:15:33.643Z,8.10
2023-04-06T15:18:03.532Z,8.10
2023-04-06T15:20:30.842Z,8.10
2023-04-06T15:22:57.965Z,8.10
2023-04-06T15:25:25.079Z,8.10
2023-04-06T15:27:52.038Z,8.20
2023-04-06T15:30:18.987Z,8.20
2023-04-06T15:33:04.807Z,8.20
2023-04-06T15:35:32.152Z,8.20
2023-04-06T15:37:59.191Z,8.20
2023-04-06T15:40:26.244Z,8.20
2023-04-06T15:42:53.308Z,8.20
2023-04-06T15:45:20.316Z,8.20
2023-04-06T15:47:47.264Z,8.20
2023-04-06T15:50:14.763Z,8.10
2023-04-06T15:52:41.918Z,8.10
2023-04-06T15:55:09.576Z,8.00
2023-04-06T15:57:36.569Z,8.10
2023-04-06T16:00:08.527Z,8.00
2023-04-06T16:02:36.242Z,8.00
2023-04-06T16:05:04.193Z,8.00
2023-04-06T16:07:32.461Z,8.00
2023-04-06T16:09:59.811Z,8.00
2023-04-06T16:12:27.865Z,8.00
2023-04-06T16:14:56.151Z,8.10
2023-04-06T16:17:23.450Z,8.00
2023-04-06T16:19:50.600Z,8.00
2023-04-06T16:22:17.743Z,8.00
2023-04-06T16:24:45.029Z,8.00
2023-04-06T16:27:12.363Z,8.00
2023-04-06T16:29:39.277Z,8.00
2023-04-06T16:32:06.904Z,8.00
2023-04-06T16:34:34.484Z,8.00
2023-04-06T16:37:02.183Z,8.00
2023-04-06T16:39:29.209Z,8.00
2023-04-06T16:41:56.889Z,7.90
2023-04-06T16:44:24.074Z,7.90
2023-04-06T16:46:51.293Z,7.80
2023-04-06T16:49:20.253Z,7.70
2023-04-06T16:51:47.371Z,7.60
2023-04-06T16:54:14.389Z,7.40
2023-04-06T16:56:41.353Z,7.30
2023-04-06T16:59:09.107Z,7.20
2023-04-06T17:01:36.305Z,7.10
2023-04-06T17:04:03.701Z,7.00
2023-04-06T17:06:31.411Z,6.90
2023-04-06T17:08:59.981Z,6.80
2023-04-06T17:11:35.842Z,6.70
2023-04-06T17:14:10.761Z,6.60
2023-04-06T17:16:37.882Z,6.50
2023-04-06T17:19:04.873Z,6.40
2023-04-06T17:21:31.839Z,6.20
2023-04-06T17:23:58.884Z,6.10
2023-04-06T17:26:26.225Z,6.00
2023-04-06T17:28:53.211Z,5.90
2023-04-06T17:31:20.367Z,5.70
2023-04-06T17:33:47.866Z,5.60
2023-04-06T17:36:15.068Z,5.40
2023-04-06T17:38:44.189Z,5.40
2023-04-06T17:41:12.680Z,5.30
2023-04-06T17:43:40.168Z,5.20
2023-04-06T17:46:07.251Z,5.20
2023-04-06T17:48:34.319Z,5.10
2023-04-06T17:51:01.439Z,5.10
2023-04-06T17:53:32.504Z,5.00
2023-04-06T17:56:04.032Z,4.80
2023-04-06T17:58:31.282Z,4.70
2023-04-06T18:00:58.365Z,4.70
2023-04-06T18:03:25.664Z,4.60
2023-04-06T18:05:52.664Z,4.50
2023-04-06T18:08:19.621Z,4.40
2023-04-06T18:10:48.426Z,4.40
2023-04-06T18:13:15.733Z,4.30
2023-04-06T18:15:42.724Z,4.20
2023-04-06T18:18:09.713Z,4.10
2023-04-06T18:20:41.502Z,4.10
2023-04-06T18:23:08.592Z,4.00
2023-04-06T18:25:42.174Z,4.00
2023-04-06T18:28:09.730Z,3.90
2023-04-06T18:30:36.926Z,3.90
2023-04-06T18:33:04.394Z,3.80
2023-04-06T18:35:31.469Z,3.80
2023-04-06T18:37:58.542Z,3.80
2023-04-06T18:40:35.269Z,3.80
2023-04-06T18:43:03.642Z,3.90
2023-04-06T18:45:36.375Z,3.90
2023-04-06T18:48:03.511Z,3.80
2023-04-06T18:50:30.518Z,3.90
2023-04-06T18:52:57.518Z,3.90
2023-04-06T18:55:26.774Z,3.90
2023-04-06T18:57:53.971Z,3.90
2023-04-06T19:00:20.941Z,3.90
2023-04-06T19:02:48.022Z,3.80
2023-04-06T19:05:15.322Z,3.90
2023-04-06T19:07:42.590Z,3.90
2023-04-06T19:10:10.580Z,3.90
2023-04-06T19:12:39.603Z,3.90
2023-04-06T19:15:08.111Z,3.90
2023-04-06T19:17:35.555Z,3.90
2023-04-06T19:20:02.858Z,3.90
2023-04-06T19:22:29.887Z,3.80
2023-04-06T19:24:57.030Z,3.70
2023-04-06T19:27:24.033Z,3.70
2023-04-06T19:29:51.032Z,3.60
2023-04-06T19:32:18.054Z,3.50
2023-04-06T19:34:45.078Z,3.50
2023-04-06T19:37:12.050Z,3.40
2023-04-06T19:39:40.155Z,3.40
2023-04-06T19:42:07.186Z,3.40
2023-04-06T19:44:34.333Z,3.30
2023-04-06T19:47:01.322Z,3.30
2023-04-06T19:49:28.588Z,3.20
2023-04-06T19:51:56.208Z,3.20
2023-04-06T19:54:23.970Z,3.10
2023-04-06T19:56:51.305Z,3.10
2023-04-06T19:59:18.398Z,3.10
2023-04-06T20:01:46.428Z,3.20
2023-04-06T20:04:13.796Z,3.20
2023-04-06T20:06:41.190Z,3.30
2023-04-06T20:09:09.496Z,3.30
2023-04-06T20:11:36.562Z,3.30
2023-04-06T20:14:03.706Z,3.30
2023-04-06T20:16:31.309Z,3.20
2023-04-06T20:18:58.320Z,3.10
2023-04-06T20:21:25.975Z,3.10
2023-04-06T20:23:53.101Z,3.00
2023-04-06T20:26:21.468Z,3.00
2023-04-06T20:28:48.727Z,3.00
2023-04-06T20:31:15.837Z,2.90
2023-04-06T20:33:42.820Z,2.90
2023-04-06T20:36:10.157Z,2.80
2023-04-06T20:38:37.170Z,2.90
2023-04-06T20:41:04.712Z,2.90
2023-04-06T20:43:31.994Z,2.80
2023-04-06T20:45:59.548Z,2.80
2023-04-06T20:48:26.690Z,2.80
2023-04-06T20:50:53.969Z,2.70
2023-04-06T20:53:21.000Z,2.60
2023-04-06T20:55:48.216Z,2.50
2023-04-06T20:58:20.574Z,2.40
2023-04-06T21:00:49.723Z,2.30
2023-04-06T21:03:17.813Z,2.20
2023-04-06T21:05:55.704Z,2.20
2023-04-06T21:08:23.023Z,2.10
2023-04-06T21:10:49.966Z,2.00
2023-04-06T21:13:16.867Z,2.00
2023-04-06T21:15:44.287Z,1.90
2023-04-06T21:18:11.776Z,1.90
2023-04-06T21:20:39.993Z,1.90
2023-04-06T21:23:07.004Z,1.90
2023-04-06T21:25:37.124Z,1.90
2023-04-06T21:28:04.622Z,1.80
2023-04-06T21:30:40.947Z,1.80
2023-04-06T21:33:09.574Z,1.70
2023-04-06T21:35:42.398Z,1.70
2023-04-06T21:38:10.018Z,1.60
2023-04-06T21:40:37.221Z,1.60
2023-04-06T21:43:04.494Z,1.60
2023-04-06T21:45:33.042Z,1.60
2023-04-06T21:48:00.506Z,1.60
2023-04-06T21:50:27.515Z,1.60
2023-04-06T21:52:54.457Z,1.60
2023-04-06T21:55:21.401Z,1.50
2023-04-06T21:57:48.325Z,1.50
2023-04-06T22:00:16.486Z,1.40
2023-04-06T22:02:45.672Z,1.40
2023-04-06T22:05:13.310Z,1.40
2023-04-06T22:07:40.651Z,1.30
2023-04-06T22:10:08.335Z,1.30
2023-04-06T22:12:35.350Z,1.20
2023-04-06T22:15:02.366Z,1.20
2023-04-06T22:17:30.045Z,1.20
2023-04-06T22:19:56.957Z,1.20
2023-04-06T22:22:25.070Z,1.20
2023-04-06T22:24:52.289Z,1.20
2023-04-06T22:27:19.242Z,1.20
2023-04-06T22:29:46.177Z,1.10
2023-04-06T22:32:13.170Z,1.20
2023-04-06T22:34:40.135Z,1.10
2023-04-06T22:37:07.065Z,1.10
2023-04-06T22:39:34.033Z,1.10
2023-04-06T22:42:01.011Z,1.00
2023-04-06T22:44:27.953Z,1.00
2023-04-06T22:46:55.351Z,0.90
2023-04-06T22:49:22.270Z,0.90
2023-04-06T22:51:49.166Z,0.80
2023-04-06T22:54:16.408Z,0.80
2023-04-06T22:56:43.314Z,0.80
2023-04-06T22:59:10.681Z,0.80
2023-04-06T23:01:37.813Z,0.70
2023-04-06T23:04:05.216Z,0.60
2023-04-06T23:06:32.253Z,0.60
2023-04-06T23:08:59.228Z,0.60
2023-04-06T23:11:26.562Z,0.50
2023-04-06T23:13:53.516Z,0.50
2023-04-06T23:16:20.851Z,0.50
2023-04-06T23:18:47.821Z,0.50
2023-04-06T23:21:14.747Z,0.50
2023-04-06T23:23:41.747Z,0.60
2023-04-06T23:26:08.662Z,0.60
2023-04-06T23:28:35.678Z,0.60
2023-04-06T23:31:02.673Z,0.60
2023-04-06T23:33:29.661Z,0.60
2023-04-06T23:35:56.792Z,0.60
2023-04-06T23:38:23.786Z,0.60
2023-04-06T23:40:51.072Z,0.60
2023-04-06T23:43:18.023Z,0.60
2023-04-06T23:45:44.924Z,0.60
2023-04-06T23:48:11.926Z,0.60
2023-04-06T23:50:38.980Z,0.50
2023-04-06T23:53:06.024Z,0.50
2023-04-06T23:55:32.958Z,0.50
2023-04-06T23:58:00.240Z,0.50
